createdAt,value
2023-05-05T00:00:23.139Z,4.50
2023-05-05T00:03:26.168Z,4.70
2023-05-05T00:06:31.647Z,3.93
2023-05-05T00:09:33.649Z,4.40
2023-05-05T00:12:36.496Z,5.27
2023-05-05T00:15:38.723Z,5.00
2023-05-05T00:18:40.892Z,5.90
2023-05-05T00:21:42.893Z,5.57
2023-05-05T00:24:44.998Z,4.33
2023-05-05T00:27:47.971Z,3.83
2023-05-05T00:30:50.736Z,4.37
2023-05-05T00:33:52.947Z,4.13
2023-05-05T00:36:54.987Z,5.90
2023-05-05T00:39:57.967Z,7.13
2023-05-05T00:43:00.054Z,4.43
2023-05-05T00:46:25.047Z,6.63
2023-05-05T00:49:27.251Z,8.07
2023-05-05T00:52:29.837Z,7.23
2023-05-05T00:55:33.513Z,5.93
2023-05-05T00:58:37.170Z,4.97
2023-05-05T01:01:39.260Z,7.47
2023-05-05T01:04:41.381Z,5.97
2023-05-05T01:07:43.459Z,4.07
2023-05-05T01:10:52.638Z,6.87
2023-05-05T01:14:14.416Z,7.27
2023-05-05T01:17:24.699Z,5.93
2023-05-05T01:20:33.476Z,4.70
2023-05-05T01:23:44.069Z,4.90
2023-05-05T01:27:17.401Z,5.17
2023-05-05T01:31:17.491Z,5.17
2023-05-05T01:34:35.809Z,8.67
2023-05-05T01:37:49.931Z,4.97
2023-05-05T01:41:10.247Z,4.67
2023-05-05T01:44:15.727Z,4.93
2023-05-05T01:47:21.378Z,4.33
2023-05-05T01:50:24.925Z,7.93
2023-05-05T01:53:27.817Z,7.17
2023-05-05T01:56:31.789Z,5.07
2023-05-05T01:59:34.496Z,5.97
2023-05-05T02:02:39.556Z,9.23
2023-05-05T02:05:43.763Z,5.67
2023-05-05T02:08:47.406Z,8.57
2023-05-05T02:11:49.768Z,4.93
2023-05-05T02:14:53.451Z,5.27
2023-05-05T02:17:56.824Z,4.80
2023-05-05T02:20:59.187Z,7.20
2023-05-05T02:24:01.557Z,7.17
2023-05-05T02:27:06.328Z,6.30
2023-05-05T02:30:11.417Z,4.70
2023-05-05T02:33:17.832Z,8.60
2023-05-05T02:36:23.154Z,8.73
2023-05-05T02:39:43.880Z,8.90
2023-05-05T02:42:54.789Z,6.57
2023-05-05T02:46:01.193Z,6.10
2023-05-05T02:49:04.719Z,6.80
2023-05-05T02:52:07.423Z,5.10
2023-05-05T02:55:12.838Z,6.20
2023-05-05T02:58:42.792Z,6.10
2023-05-05T03:02:11.457Z,6.10
2023-05-05T03:05:19.916Z,9.23
2023-05-05T03:08:42.383Z,5.73
2023-05-05T03:11:51.169Z,4.00
2023-05-05T03:14:56.295Z,5.37
2023-05-05T03:18:00.615Z,5.30
2023-05-05T03:21:08.855Z,5.37
2023-05-05T03:24:15.910Z,4.47
2023-05-05T03:27:21.636Z,5.53
2023-05-05T03:30:23.661Z,8.50
2023-05-05T03:33:27.466Z,5.33
2023-05-05T03:36:35.249Z,6.70
2023-05-05T03:39:37.843Z,5.00
2023-05-05T03:42:40.989Z,3.97
2023-05-05T03:45:43.123Z,7.03
2023-05-05T03:48:46.286Z,4.77
2023-05-05T03:51:48.378Z,5.50
2023-05-05T03:54:50.889Z,6.30
2023-05-05T03:57:53.611Z,5.47
2023-05-05T04:00:55.613Z,5.17
2023-05-05T04:03:57.982Z,7.20
2023-05-05T04:07:00.050Z,4.73
2023-05-05T04:10:02.207Z,4.60
2023-05-05T04:13:04.418Z,4.53
2023-05-05T04:16:08.916Z,4.40
2023-05-05T04:19:13.349Z,4.50
2023-05-05T04:22:16.024Z,5.03
2023-05-05T04:25:18.364Z,6.83
2023-05-05T04:28:22.018Z,7.67
2023-05-05T04:31:24.702Z,4.67
2023-05-05T04:34:26.837Z,5.10
2023-05-05T04:37:29.603Z,5.33
2023-05-05T04:40:33.373Z,8.90
2023-05-05T04:43:36.258Z,7.10
2023-05-05T04:46:38.456Z,6.77
2023-05-05T04:49:40.664Z,5.70
2023-05-05T04:52:42.857Z,4.67
2023-05-05T04:55:44.842Z,4.83
2023-05-05T04:58:46.833Z,4.77
2023-05-05T05:01:48.900Z,4.80
2023-05-05T05:04:51.033Z,8.30
2023-05-05T05:07:52.981Z,5.03
2023-05-05T05:10:54.924Z,6.80
2023-05-05T05:13:57.812Z,5.53
2023-05-05T05:16:59.796Z,6.23
2023-05-05T05:20:05.111Z,5.13
2023-05-05T05:23:09.061Z,7.27
2023-05-05T05:26:16.805Z,4.83
2023-05-05T05:29:20.640Z,4.80
2023-05-05T05:32:23.714Z,4.50
2023-05-05T05:35:25.999Z,5.70
2023-05-05T05:38:28.234Z,4.93
2023-05-05T05:41:33.864Z,7.27
2023-05-05T05:44:36.205Z,6.70
2023-05-05T05:47:38.305Z,4.40
2023-05-05T05:50:40.393Z,5.03
2023-05-05T05:53:42.453Z,5.10
2023-05-05T05:56:44.695Z,4.93
2023-05-05T05:59:46.974Z,4.70
2023-05-05T06:02:49.240Z,4.93
2023-05-05T06:05:54.220Z,7.83
2023-05-05T06:08:57.484Z,5.40
2023-05-05T06:11:59.755Z,5.07
2023-05-05T06:15:01.763Z,4.80
2023-05-05T06:18:04.765Z,7.47
2023-05-05T06:21:07.068Z,8.60
2023-05-05T06:24:09.104Z,5.73
2023-05-05T06:27:11.302Z,5.00
2023-05-05T06:30:14.922Z,4.83
2023-05-05T06:33:17.091Z,4.97
2023-05-05T06:36:19.138Z,6.50
2023-05-05T06:39:21.175Z,5.20
2023-05-05T06:42:23.309Z,5.90
2023-05-05T06:45:27.333Z,5.63
2023-05-05T06:48:29.294Z,4.70
2023-05-05T06:51:32.031Z,7.83
2023-05-05T06:54:34.298Z,4.47
2023-05-05T06:57:36.403Z,5.70
2023-05-05T07:00:41.331Z,5.83
2023-05-05T07:03:44.177Z,5.27
2023-05-05T07:06:46.493Z,6.00
2023-05-05T07:09:48.452Z,7.07
2023-05-05T07:12:52.169Z,8.77
2023-05-05T07:15:54.412Z,6.17
2023-05-05T07:18:57.099Z,4.77
2023-05-05T07:21:59.139Z,4.90
2023-05-05T07:25:01.234Z,8.13
2023-05-05T07:28:03.914Z,3.90
2023-05-05T07:31:05.968Z,7.30
2023-05-05T07:34:07.953Z,5.47
2023-05-05T07:37:10.072Z,4.30
2023-05-05T07:40:12.849Z,5.77
2023-05-05T07:43:14.843Z,7.43
2023-05-05T07:46:16.894Z,7.70
2023-05-05T07:49:20.229Z,6.43
2023-05-05T07:52:33.180Z,6.10
2023-05-05T07:55:44.347Z,5.00
2023-05-05T07:58:47.023Z,6.93
2023-05-05T08:01:48.986Z,5.40
2023-05-05T08:04:51.086Z,8.60
2023-05-05T08:07:53.153Z,9.90
2023-05-05T08:10:55.172Z,12.33
2023-05-05T08:13:57.215Z,7.63
2023-05-05T08:16:59.316Z,11.43
2023-05-05T08:20:01.340Z,8.50
2023-05-05T08:23:03.401Z,8.97
2023-05-05T08:26:06.736Z,8.27
2023-05-05T08:29:08.690Z,9.83
2023-05-05T08:32:10.772Z,7.20
2023-05-05T08:35:13.434Z,11.27
2023-05-05T08:38:15.765Z,7.60
2023-05-05T08:41:18.981Z,10.30
2023-05-05T08:44:21.113Z,7.87
2023-05-05T08:47:23.161Z,7.40
2023-05-05T08:50:27.998Z,7.60
2023-05-05T08:53:43.755Z,7.47
2023-05-05T08:56:47.627Z,9.10
2023-05-05T08:59:50.280Z,10.70
2023-05-05T09:02:54.912Z,7.00
2023-05-05T09:05:58.156Z,8.80
2023-05-05T09:09:01.594Z,8.33
2023-05-05T09:12:04.121Z,7.23
2023-05-05T09:18:29.896Z,8.33
2023-05-05T09:21:32.751Z,9.97
2023-05-05T09:24:34.733Z,7.93
2023-05-05T09:27:38.710Z,7.53
2023-05-05T09:30:42.453Z,10.10
2023-05-05T09:33:44.652Z,13.00
2023-05-05T09:36:48.344Z,8.50
2023-05-05T09:39:55.664Z,11.40
2023-05-05T09:43:03.919Z,8.53
2023-05-05T09:46:08.043Z,11.10
2023-05-05T09:49:20.356Z,13.10
2023-05-05T09:52:22.647Z,11.53
2023-05-05T09:55:25.265Z,9.90
2023-05-05T09:58:29.292Z,10.60
2023-05-05T10:01:31.542Z,9.27
2023-05-05T10:04:33.523Z,10.80
2023-05-05T10:07:36.415Z,8.73
2023-05-05T10:10:46.354Z,10.10
2023-05-05T10:13:48.770Z,9.93
2023-05-05T10:16:53.820Z,9.00
2023-05-05T10:19:58.302Z,8.73
2023-05-05T10:23:05.589Z,8.17
2023-05-05T10:26:10.779Z,9.07
2023-05-05T10:29:20.557Z,10.03
2023-05-05T10:32:53.972Z,9.67
2023-05-05T10:35:53.779Z,9.63
2023-05-05T10:38:57.971Z,8.73
2023-05-05T10:42:04.507Z,11.43
2023-05-05T10:45:07.721Z,8.07
2023-05-05T10:48:22.967Z,8.67
2023-05-05T10:51:40.135Z,10.37
2023-05-05T10:55:16.901Z,7.53
2023-05-05T10:58:55.428Z,7.53
2023-05-05T11:02:01.110Z,9.10
2023-05-05T11:05:07.242Z,7.47
2023-05-05T11:08:26.631Z,7.63
2023-05-05T11:12:04.812Z,6.00
2023-05-05T11:15:31.614Z,4.70
2023-05-05T11:18:36.742Z,7.43
2023-05-05T11:22:02.090Z,7.63
2023-05-05T11:25:36.465Z,6.23
2023-05-05T11:29:05.087Z,7.50
2023-05-05T11:32:18.179Z,9.67
2023-05-05T11:35:20.191Z,6.13
2023-05-05T11:39:03.140Z,8.53
2023-05-05T11:42:28.855Z,7.07
2023-05-05T11:45:31.630Z,6.00
2023-05-05T11:48:46.367Z,10.57
2023-05-05T11:52:00.188Z,8.70
2023-05-05T11:55:02.247Z,8.87
2023-05-05T11:58:18.487Z,6.03
2023-05-05T12:01:20.556Z,7.70
2023-05-05T12:04:22.747Z,6.63
2023-05-05T12:07:28.163Z,6.27
2023-05-05T12:10:30.768Z,6.57
2023-05-05T12:13:33.021Z,5.53
2023-05-05T12:16:35.168Z,5.00
2023-05-05T12:19:37.406Z,6.07
2023-05-05T12:22:40.005Z,5.57
2023-05-05T12:25:41.966Z,5.20
2023-05-05T12:28:48.427Z,5.50
2023-05-05T12:31:50.988Z,6.17
2023-05-05T12:34:54.787Z,5.03
2023-05-05T12:37:57.138Z,7.53
2023-05-05T12:40:59.054Z,5.53
2023-05-05T12:44:03.295Z,7.63
2023-05-05T12:47:05.726Z,5.13
2023-05-05T12:50:08.449Z,6.83
2023-05-05T12:53:23.019Z,5.73
2023-05-05T12:56:31.269Z,3.87
2023-05-05T12:59:33.337Z,4.53
2023-05-05T13:02:35.526Z,5.00
2023-05-05T13:05:37.658Z,4.33
2023-05-05T13:08:43.664Z,5.70
2023-05-05T13:11:45.824Z,4.63
2023-05-05T13:14:47.917Z,3.27
2023-05-05T13:17:49.901Z,3.53
2023-05-05T13:20:52.137Z,6.43
2023-05-05T13:23:55.967Z,5.00
2023-05-05T13:27:04.601Z,3.33
2023-05-05T13:30:07.454Z,5.27
2023-05-05T13:33:09.509Z,3.97
2023-05-05T13:36:11.733Z,3.60
2023-05-05T13:39:13.870Z,4.63
2023-05-05T13:42:16.009Z,3.40
2023-05-05T13:45:19.818Z,2.80
2023-05-05T13:48:22.678Z,4.60
2023-05-05T13:51:24.704Z,3.23
2023-05-05T13:54:27.204Z,4.80
2023-05-05T13:57:29.214Z,3.03
2023-05-05T14:00:31.845Z,5.67
2023-05-05T14:03:34.135Z,3.53
2023-05-05T14:06:36.376Z,6.13
2023-05-05T14:09:38.358Z,2.50
2023-05-05T14:12:40.598Z,4.80
2023-05-05T14:15:42.832Z,3.97
2023-05-05T14:18:44.834Z,7.57
2023-05-05T14:21:46.882Z,3.17
2023-05-05T14:24:48.916Z,3.33
2023-05-05T14:27:51.108Z,4.00
2023-05-05T14:30:53.127Z,3.73
2023-05-05T14:33:55.176Z,3.63
2023-05-05T14:36:57.370Z,4.80
2023-05-05T14:56:47.252Z,5.87
2023-05-05T14:59:52.141Z,3.57
2023-05-05T15:02:54.226Z,1.83
2023-05-05T15:05:56.637Z,2.30
2023-05-05T15:08:58.753Z,3.17
2023-05-05T15:12:00.848Z,2.53
2023-05-05T15:15:03.257Z,3.97
2023-05-05T15:18:05.810Z,2.23
2023-05-05T15:21:07.750Z,2.20
2023-05-05T15:24:09.795Z,3.17
2023-05-05T15:27:11.852Z,2.50
2023-05-05T15:30:14.303Z,3.27
2023-05-05T15:33:16.812Z,2.20
2023-05-05T15:36:22.844Z,3.70
2023-05-05T15:39:24.891Z,3.90
2023-05-05T15:42:27.117Z,2.23
2023-05-05T15:45:29.164Z,3.03
2023-05-05T15:48:31.571Z,6.17
2023-05-05T15:51:33.615Z,1.97
2023-05-05T15:54:35.778Z,2.20
2023-05-05T15:57:40.038Z,2.40
2023-05-05T16:00:42.012Z,2.47
2023-05-05T16:03:44.117Z,3.83
2023-05-05T16:06:46.120Z,5.57
2023-05-05T16:09:48.070Z,3.43
2023-05-05T16:12:50.178Z,4.47
2023-05-05T16:15:52.213Z,2.20
2023-05-05T16:18:54.258Z,6.00
2023-05-05T16:21:56.811Z,2.10
2023-05-05T16:24:58.875Z,3.07
2023-05-05T16:28:01.889Z,3.23
2023-05-05T16:31:04.032Z,3.80
2023-05-05T16:34:06.935Z,3.97
2023-05-05T16:37:09.024Z,4.00
2023-05-05T16:40:11.883Z,3.00
2023-05-05T16:43:14.023Z,4.63
2023-05-05T16:46:16.105Z,3.00
2023-05-05T16:49:18.756Z,4.50
2023-05-05T16:52:20.733Z,5.23
2023-05-05T16:55:22.780Z,3.97
2023-05-05T16:58:25.005Z,6.33
2023-05-05T17:01:26.999Z,5.07
2023-05-05T17:04:29.034Z,3.10
2023-05-05T17:07:30.971Z,3.90
2023-05-05T17:10:34.051Z,3.40
2023-05-05T17:13:36.114Z,3.90
2023-05-05T17:16:38.794Z,5.27
2023-05-05T17:19:42.694Z,8.80
2023-05-05T17:22:46.753Z,4.27
2023-05-05T17:25:48.793Z,5.03
2023-05-05T17:28:50.822Z,5.00
2023-05-05T17:31:54.295Z,4.20
2023-05-05T17:34:56.580Z,4.00
2023-05-05T17:37:58.714Z,4.03
2023-05-05T17:41:00.665Z,3.00
2023-05-05T17:44:02.641Z,4.20
2023-05-05T17:47:07.827Z,3.07
2023-05-05T17:50:11.289Z,5.57
2023-05-05T17:53:13.249Z,5.93
2023-05-05T17:56:15.410Z,4.30
2023-05-05T17:59:17.552Z,3.23
2023-05-05T18:02:19.837Z,3.43
2023-05-05T18:05:21.993Z,4.40
2023-05-05T18:08:24.132Z,3.30
2023-05-05T18:11:28.976Z,4.23
2023-05-05T18:14:30.996Z,4.07
2023-05-05T18:17:33.004Z,3.60
2023-05-05T18:20:35.330Z,4.70
2023-05-05T18:23:37.318Z,3.93
2023-05-05T18:26:39.450Z,3.43
2023-05-05T18:29:41.786Z,3.77
2023-05-05T18:32:43.878Z,4.47
2023-05-05T18:35:46.016Z,3.73
2023-05-05T18:38:48.079Z,3.30
2023-05-05T18:41:50.360Z,4.40
2023-05-05T18:44:52.319Z,4.80
2023-05-05T18:47:54.353Z,4.37
2023-05-05T18:51:04.139Z,4.53
2023-05-05T18:54:06.207Z,6.90
2023-05-05T18:57:08.468Z,4.03
2023-05-05T19:00:11.126Z,4.33
2023-05-05T19:03:13.243Z,3.80
2023-05-05T19:06:16.211Z,4.43
2023-05-05T19:09:18.260Z,3.70
2023-05-05T19:12:20.279Z,5.17
2023-05-05T19:15:22.323Z,4.00
2023-05-05T19:18:25.046Z,4.93
2023-05-05T19:21:27.888Z,4.90
2023-05-05T19:24:29.982Z,4.47
2023-05-05T19:27:34.201Z,5.67
2023-05-05T19:30:36.404Z,3.77
2023-05-05T19:33:38.558Z,5.17
2023-05-05T19:36:40.606Z,5.07
2023-05-05T19:39:44.524Z,5.40
2023-05-05T19:42:46.642Z,7.37
2023-05-05T19:45:48.673Z,5.13
2023-05-05T19:48:50.785Z,4.53
2023-05-05T19:51:54.464Z,4.50
2023-05-05T19:54:56.484Z,4.17
2023-05-05T19:57:58.575Z,7.33
2023-05-05T20:01:00.834Z,6.60
2023-05-05T20:04:03.923Z,5.27
2023-05-05T20:07:06.008Z,8.70
2023-05-05T20:10:09.612Z,6.97
2023-05-05T20:13:11.924Z,5.60
2023-05-05T20:16:15.044Z,4.43
2023-05-05T20:19:17.233Z,4.90
2023-05-05T20:22:19.300Z,6.17
2023-05-05T20:25:21.704Z,6.60
2023-05-05T20:28:24.106Z,6.23
2023-05-05T20:31:26.341Z,6.53
2023-05-05T20:34:28.478Z,8.20
2023-05-05T20:37:30.717Z,6.33
2023-05-05T20:40:33.861Z,6.27
2023-05-05T20:43:36.927Z,5.10
2023-05-05T20:46:39.024Z,5.33
2023-05-05T20:49:41.314Z,4.17
2023-05-05T20:52:43.387Z,5.23
2023-05-05T20:55:45.515Z,7.27
2023-05-05T20:58:47.575Z,6.03
2023-05-05T21:01:49.686Z,4.80
2023-05-05T21:04:51.754Z,8.63
2023-05-05T21:07:54.797Z,5.47
2023-05-05T21:10:56.837Z,7.33
2023-05-05T21:13:58.989Z,6.43
2023-05-05T21:17:01.321Z,4.80
2023-05-05T21:20:04.177Z,5.30
2023-05-05T21:23:06.206Z,6.03
2023-05-05T21:26:08.295Z,5.57
2023-05-05T21:29:10.922Z,5.33
2023-05-05T21:32:13.204Z,8.30
2023-05-05T21:35:15.336Z,5.10
2023-05-05T21:38:17.371Z,5.47
2023-05-05T21:41:19.509Z,5.23
2023-05-05T21:44:21.576Z,5.47
2023-05-05T21:47:23.653Z,6.50
2023-05-05T21:50:27.553Z,5.77
2023-05-05T21:53:31.050Z,4.87
2023-05-05T21:56:34.293Z,6.00
2023-05-05T21:59:36.321Z,5.93
2023-05-05T22:02:38.381Z,7.37
2023-05-05T22:05:40.469Z,7.87
2023-05-05T22:08:42.579Z,4.97
2023-05-05T22:11:44.581Z,5.47
2023-05-05T22:14:46.628Z,5.03
2023-05-05T22:17:48.626Z,7.00
2023-05-05T22:20:51.490Z,5.73
2023-05-05T22:23:53.467Z,6.43
2023-05-05T22:26:57.468Z,8.03
2023-05-05T22:29:59.708Z,7.43
2023-05-05T22:33:01.772Z,6.03
2023-05-05T22:36:04.044Z,5.87
2023-05-05T22:39:06.641Z,5.53
2023-05-05T22:42:08.760Z,5.70
2023-05-05T22:45:11.568Z,5.83
2023-05-05T22:48:13.917Z,6.73
2023-05-05T22:51:16.621Z,6.90
2023-05-05T22:54:18.627Z,6.37
2023-05-05T22:57:21.142Z,6.20
2023-05-05T23:00:23.260Z,7.83
2023-05-05T23:03:25.311Z,7.97
2023-05-05T23:06:28.140Z,7.03
2023-05-05T23:09:30.240Z,6.43
2023-05-05T23:12:32.318Z,6.37
2023-05-05T23:15:35.389Z,9.03
2023-05-05T23:18:38.087Z,8.90
2023-05-05T23:21:51.994Z,6.67
2023-05-05T23:24:55.233Z,6.47
2023-05-05T23:27:57.221Z,7.87
2023-05-05T23:30:59.380Z,7.10
2023-05-05T23:34:01.435Z,7.03
2023-05-05T23:37:05.900Z,9.00
2023-05-05T23:40:08.930Z,8.70
2023-05-05T23:43:12.223Z,7.37
2023-05-05T23:46:14.358Z,7.10
2023-05-05T23:49:16.427Z,8.30
2023-05-05T23:52:18.534Z,7.67
2023-05-05T23:55:20.736Z,7.23
2023-05-05T23:58:22.697Z,7.57
